Time;durP1;ratioP1;P1;durP2;ratioP2;P2;SDS_P1;SDS_P2;PMS_P1;PMS_P2;Temp;Humidity;BMP_temperature;BMP_pressure;BME280_temperature;BME280_humidity;BME280_pressure;Samples;Min_cycle;Max_cycle;Signal;HPM_P1;HPM_P2
2022/08/13 00:02:22;;;;;;;1.73;1.40;;;18.00;99.90;;;;;;5035287;28;20079;-87
2022/08/13 00:05:01;;;;;;;2.35;1.38;;;17.90;99.90;;;;;;5040276;28;20381;-86
2022/08/13 00:07:29;;;;;;;8.38;1.95;;;17.90;99.90;;;;;;5039799;28;20497;-87
2022/08/13 00:09:58;;;;;;;4.38;1.20;;;17.90;99.90;;;;;;5023766;28;20045;-87
2022/08/13 00:15:15;;;;;;;4.05;2.00;;;17.90;99.90;;;;;;5042634;28;20060;-87
2022/08/13 00:18:00;;;;;;;2.38;1.63;;;17.80;99.90;;;;;;5047696;28;20017;-86
2022/08/13 00:20:31;;;;;;;1.80;1.70;;;17.80;99.90;;;;;;5042924;28;20029;-87
2022/08/13 00:23:06;;;;;;;2.20;1.58;;;17.80;99.90;;;;;;5032952;28;20512;-87
2022/08/13 00:25:32;;;;;;;2.33;1.45;;;17.80;99.90;;;;;;5048503;28;20017;-87
2022/08/13 00:27:59;;;;;;;2.38;1.27;;;17.80;99.90;;;;;;5046466;28;20484;-87
2022/08/13 00:30:33;;;;;;;2.33;1.60;;;17.80;99.90;;;;;;5040743;28;20013;-87
2022/08/13 00:33:12;;;;;;;2.80;1.50;;;17.80;99.90;;;;;;5043915;28;20025;-87
2022/08/13 00:35:47;;;;;;;5.38;1.70;;;17.70;99.90;;;;;;5037088;28;20121;-86
2022/08/13 00:38:16;;;;;;;3.13;1.65;;;17.60;99.90;;;;;;5035860;28;20039;-87
2022/08/13 00:40:53;;;;;;;2.35;1.55;;;17.60;99.90;;;;;;5046536;28;20120;-86
2022/08/13 00:43:20;;;;;;;1.77;1.25;;;17.70;99.90;;;;;;5046424;28;20572;-86
2022/08/13 00:45:46;;;;;;;1.73;1.38;;;17.60;99.90;;;;;;5046576;28;20033;-86
2022/08/13 00:50:58;;;;;;;3.87;1.60;;;17.60;99.90;;;;;;5033752;28;20068;-87
2022/08/13 00:53:24;;;;;;;2.15;1.30;;;17.60;99.90;;;;;;5038617;28;20283;-87
2022/08/13 00:55:58;;;;;;;2.53;1.60;;;17.50;99.90;;;;;;5048931;28;20480;-87
2022/08/13 00:58:27;;;;;;;3.67;1.52;;;17.50;99.90;;;;;;5040461;28;20112;-87
2022/08/13 01:00:57;;;;;;;1.85;1.67;;;17.40;99.90;;;;;;5031011;28;20025;-87
2022/08/13 01:03:44;;;;;;;1.75;1.42;;;17.40;99.90;;;;;;5039029;28;20040;-87
2022/08/13 01:06:10;;;;;;;7.63;1.83;;;17.40;99.90;;;;;;5036907;28;20025;-87
2022/08/13 01:08:54;;;;;;;5.68;1.63;;;17.40;99.90;;;;;;5043662;28;20032;-87
2022/08/13 01:11:29;;;;;;;3.33;1.65;;;17.30;99.90;;;;;;5043061;28;20131;-86
2022/08/13 01:13:57;;;;;;;2.53;1.40;;;17.40;99.90;;;;;;5048637;28;20416;-87
2022/08/13 01:16:27;;;;;;;1.67;1.30;;;17.30;99.90;;;;;;5032154;28;20036;-86
2022/08/13 01:18:52;;;;;;;1.77;1.40;;;17.30;99.90;;;;;;5036155;28;20115;-87
2022/08/13 01:21:20;;;;;;;1.50;1.40;;;17.30;99.90;;;;;;5034394;28;20529;-87
2022/08/13 01:24:20;;;;;;;1.73;1.63;;;17.40;99.90;;;;;;5034964;28;20056;-87
2022/08/13 01:26:48;;;;;;;2.85;1.63;;;17.30;99.90;;;;;;5037199;28;20029;-87
2022/08/13 01:29:16;;;;;;;3.78;1.70;;;17.30;99.90;;;;;;5032132;28;20163;-87
2022/08/13 01:31:59;;;;;;;4.68;1.60;;;17.30;99.90;;;;;;5038554;28;20017;-87
2022/08/13 01:34:25;;;;;;;4.38;1.75;;;17.20;99.90;;;;;;5036934;28;20159;-86
2022/08/13 01:37:05;;;;;;;8.27;3.17;;;17.20;99.90;;;;;;5043443;28;20045;-86
2022/08/13 01:39:30;;;;;;;2.45;1.40;;;17.10;99.90;;;;;;5031353;28;20032;-87
2022/08/13 01:41:56;;;;;;;2.17;1.70;;;17.10;99.90;;;;;;5033744;28;20022;-86
2022/08/13 01:44:31;;;;;;;1.80;1.60;;;17.10;99.90;;;;;;5042770;28;20025;-86
2022/08/13 01:52:36;;;;;;;1.83;1.58;;;17.10;99.90;;;;;;5041841;28;20024;-87
2022/08/13 01:55:05;;;;;;;1.55;1.45;;;17.10;99.90;;;;;;5045422;28;20029;-86
2022/08/13 01:57:33;;;;;;;2.17;1.38;;;17.10;99.90;;;;;;5033672;28;20029;-87
2022/08/13 02:00:09;;;;;;;3.63;1.52;;;17.10;99.90;;;;;;5032042;28;20041;-86
2022/08/13 02:02:34;;;;;;;;;;;17.10;99.90;;;;;;5045035;28;20032;-87
2022/08/13 02:05:12;;;;;;;1.70;1.60;;;17.00;99.90;;;;;;5046626;28;19917;-86
2022/08/13 02:07:40;;;;;;;1.85;1.75;;;17.00;99.90;;;;;;5034795;28;20033;-86
2022/08/13 02:10:19;;;;;;;3.10;1.70;;;17.00;99.90;;;;;;5063055;28;20485;-86
2022/08/13 02:12:46;;;;;;;3.83;1.75;;;17.00;99.90;;;;;;5037376;28;20477;-87
2022/08/13 02:15:41;;;;;;;2.85;1.40;;;16.90;99.90;;;;;;5047361;28;20024;-86
2022/08/13 02:18:17;;;;;;;2.13;1.60;;;16.90;99.90;;;;;;5035764;28;20021;-86
2022/08/13 02:21:07;;;;;;;1.83;1.63;;;16.80;99.90;;;;;;5054823;28;20031;-86
2022/08/13 02:23:33;;;;;;;1.70;1.60;;;16.80;99.90;;;;;;5048135;28;20477;-86
2022/08/13 02:26:05;;;;;;;2.13;1.70;;;16.80;99.90;;;;;;5035768;28;20088;-86
2022/08/13 02:28:39;;;;;;;4.93;1.52;;;16.70;99.90;;;;;;5047031;28;20064;-86
2022/08/13 02:31:06;;;;;;;2.58;2.13;;;16.70;99.90;;;;;;5041642;28;20017;-86
2022/08/13 02:33:42;;;;;;;6.15;2.05;;;16.70;99.90;;;;;;5047979;28;20072;-86
2022/08/13 02:36:10;;;;;;;4.93;2.20;;;16.60;99.90;;;;;;5054940;28;20408;-83
2022/08/13 02:38:38;;;;;;;2.35;1.58;;;16.60;99.90;;;;;;5035564;28;20112;-82
2022/08/13 02:43:50;;;;;;;1.83;1.73;;;16.50;99.90;;;;;;5050230;28;20098;-82
2022/08/13 02:46:16;;;;;;;2.15;1.95;;;16.50;99.90;;;;;;5046882;28;20021;-82
2022/08/13 02:48:58;;;;;;;5.57;2.15;;;16.40;99.90;;;;;;5035759;28;20109;-83
2022/08/13 02:51:25;;;;;;;4.88;2.03;;;16.40;99.90;;;;;;5039966;28;20033;-82
2022/08/13 02:54:00;;;;;;;2.10;1.77;;;16.30;99.90;;;;;;5050660;28;20386;-82
2022/08/13 02:56:27;;;;;;;2.72;1.92;;;16.30;99.90;;;;;;5048206;28;20092;-82
2022/08/13 02:58:54;;;;;;;2.65;1.63;;;16.30;99.90;;;;;;5046750;28;20102;-83
2022/08/13 03:01:28;;;;;;;6.07;2.13;;;16.30;99.90;;;;;;5036279;28;20124;-83
2022/08/13 03:03:54;;;;;;;3.28;2.08;;;16.30;99.90;;;;;;5033813;28;20034;-83
2022/08/13 03:06:24;;;;;;;3.25;1.85;;;16.30;99.90;;;;;;5045766;28;20128;-83
2022/08/13 03:08:52;;;;;;;5.07;2.05;;;16.20;99.90;;;;;;5047259;28;20385;-83
2022/08/13 03:11:19;;;;;;;1.92;1.70;;;16.20;99.90;;;;;;5033500;28;20056;-83
2022/08/13 03:13:56;;;;;;;4.88;1.83;;;16.20;99.90;;;;;;5043081;28;20025;-82
2022/08/13 03:16:24;;;;;;;2.55;1.95;;;16.20;99.90;;;;;;5032817;28;20065;-83
2022/08/13 03:18:59;;;;;;;2.10;1.88;;;16.10;99.90;;;;;;5041320;28;20468;-82
2022/08/13 03:21:32;;;;;;;3.23;1.83;;;16.10;99.90;;;;;;5035921;28;20075;-82
2022/08/13 03:24:06;;;;;;;1.70;1.60;;;16.10;99.90;;;;;;5035942;28;20104;-82
2022/08/13 03:26:32;;;;;;;1.73;1.58;;;16.10;99.90;;;;;;5034781;28;20061;-83
2022/08/13 03:29:14;;;;;;;2.40;1.38;;;16.10;99.90;;;;;;5034063;28;20083;-83
2022/08/13 03:31:40;;;;;;;6.00;2.05;;;16.10;99.90;;;;;;5037061;28;20119;-82
2022/08/13 03:34:17;;;;;;;5.43;1.85;;;16.10;99.90;;;;;;5036007;28;20037;-82
2022/08/13 03:36:42;;;;;;;1.98;1.60;;;16.10;99.90;;;;;;5038250;28;20111;-82
2022/08/13 03:39:08;;;;;;;3.72;2.10;;;16.00;99.90;;;;;;5042075;28;20112;-82
2022/08/13 03:41:42;;;;;;;1.88;1.70;;;16.00;99.90;;;;;;5047020;28;20044;-82
2022/08/13 03:44:07;;;;;;;3.45;1.80;;;16.00;99.90;;;;;;5043877;28;20025;-82
2022/08/13 03:46:39;;;;;;;2.47;1.80;;;16.00;99.90;;;;;;5039978;28;20043;-83
2022/08/13 03:49:05;;;;;;;3.92;2.20;;;16.00;99.90;;;;;;5036365;28;20029;-82
2022/08/13 03:52:01;;;;;;;1.98;1.60;;;16.00;99.90;;;;;;5038113;28;20036;-83
2022/08/13 03:54:28;;;;;;;5.30;2.17;;;16.00;99.90;;;;;;5040297;28;20017;-83
2022/08/13 03:56:55;;;;;;;8.18;2.45;;;16.10;99.90;;;;;;5035631;28;20057;-83
2022/08/13 03:59:21;;;;;;;3.08;2.00;;;16.00;99.90;;;;;;5038295;28;20406;-82
2022/08/13 04:01:50;;;;;;;4.00;2.22;;;16.00;99.90;;;;;;5041927;28;20052;-83
2022/08/13 04:04:18;;;;;;;8.18;2.40;;;16.00;99.90;;;;;;5047764;28;20021;-83
2022/08/13 04:06:50;;;;;;;2.90;2.00;;;15.90;99.90;;;;;;5034173;28;20021;-82
2022/08/13 04:09:15;;;;;;;6.05;2.13;;;15.90;99.90;;;;;;5039853;28;20043;-82
2022/08/13 04:11:41;;;;;;;2.22;1.80;;;15.80;99.90;;;;;;5041897;28;20391;-82
2022/08/13 04:14:09;;;;;;;2.03;1.92;;;15.90;99.90;;;;;;5041406;28;20376;-82
2022/08/13 04:16:34;;;;;;;4.43;2.97;;;15.90;99.90;;;;;;5033064;28;20560;-83
2022/08/13 04:19:03;;;;;;;2.63;1.90;;;15.90;99.90;;;;;;5032227;28;20108;-83
2022/08/13 04:21:31;;;;;;;3.40;2.10;;;15.90;99.90;;;;;;5033248;28;20034;-83
2022/08/13 04:23:57;;;;;;;2.28;2.08;;;16.00;99.90;;;;;;5043264;28;20469;-83
2022/08/13 04:26:32;;;;;;;1.77;1.67;;;16.00;99.90;;;;;;5041340;28;20036;-82
2022/08/13 04:29:04;;;;;;;2.75;2.15;;;16.00;99.90;;;;;;5036674;28;20026;-82
2022/08/13 04:31:57;;;;;;;2.03;1.85;;;16.00;99.90;;;;;;5043561;28;20021;-83
2022/08/13 04:34:29;;;;;;;2.28;1.95;;;16.00;99.90;;;;;;5041264;28;20745;-83
2022/08/13 04:37:01;;;;;;;4.47;1.88;;;16.00;99.90;;;;;;5032779;28;20024;-82
2022/08/13 04:39:27;;;;;;;3.20;1.80;;;16.00;99.90;;;;;;5032293;28;20118;-83
2022/08/13 04:41:53;;;;;;;2.35;2.08;;;16.00;99.90;;;;;;5032932;28;20037;-83
2022/08/13 04:44:20;;;;;;;6.93;2.08;;;16.00;99.90;;;;;;5040042;28;20032;-83
2022/08/13 04:46:45;;;;;;;2.00;1.58;;;16.00;99.90;;;;;;5038981;28;20066;-83
2022/08/13 04:49:12;;;;;;;4.93;2.60;;;16.10;99.90;;;;;;5042110;28;20385;-82
2022/08/13 04:51:38;;;;;;;3.95;2.50;;;16.10;99.90;;;;;;5037382;28;20527;-82
2022/08/13 04:54:28;;;;;;;3.38;2.22;;;16.20;99.90;;;;;;5046241;28;20397;-82
2022/08/13 04:56:57;;;;;;;2.00;1.90;;;16.20;99.90;;;;;;5045628;28;20017;-82
2022/08/13 04:59:38;;;;;;;2.67;2.00;;;16.20;99.90;;;;;;5040065;28;20553;-83
2022/08/13 05:02:06;;;;;;;3.60;1.80;;;16.20;99.90;;;;;;5037161;28;20110;-82
2022/08/13 05:04:32;;;;;;;2.53;2.28;;;16.30;99.90;;;;;;5034495;28;20025;-82
2022/08/13 05:06:57;;;;;;;1.92;1.63;;;16.40;99.90;;;;;;5036593;28;20044;-82
2022/08/13 05:09:23;;;;;;;3.08;2.20;;;16.40;99.90;;;;;;5042391;28;20025;-83
2022/08/13 05:11:49;;;;;;;5.38;3.15;;;16.50;99.90;;;;;;5040121;28;20044;-83
2022/08/13 05:14:17;;;;;;;2.50;2.30;;;16.50;99.90;;;;;;5040849;28;20445;-83
2022/08/13 05:16:44;;;;;;;3.53;2.38;;;16.50;99.90;;;;;;5045740;28;20061;-83
2022/08/13 05:19:10;;;;;;;2.60;2.30;;;16.50;99.90;;;;;;5038706;28;20039;-83
2022/08/13 05:21:35;;;;;;;5.55;2.58;;;16.50;99.90;;;;;;5045087;28;20108;-83
2022/08/13 05:24:03;;;;;;;3.05;2.20;;;16.60;99.90;;;;;;5043678;28;20039;-83
2022/08/13 05:26:31;;;;;;;5.07;1.90;;;16.70;99.90;;;;;;5039044;28;20026;-83
2022/08/13 05:29:04;;;;;;;2.45;1.90;;;16.70;99.90;;;;;;5036277;28;20474;-83
2022/08/13 05:31:30;;;;;;;2.35;2.15;;;16.80;99.90;;;;;;5043586;28;20028;-83
2022/08/13 05:34:11;;;;;;;4.70;2.42;;;16.90;99.90;;;;;;5032891;28;20104;-83
2022/08/13 05:36:44;;;;;;;6.15;2.47;;;17.00;99.90;;;;;;5045384;28;20029;-83
2022/08/13 05:39:43;;;;;;;2.25;2.05;;;17.10;99.90;;;;;;5043262;28;20025;-83
2022/08/13 05:42:13;;;;;;;3.72;2.35;;;17.10;99.90;;;;;;5048745;28;20036;-84
2022/08/13 05:44:39;;;;;;;2.17;1.92;;;17.20;99.90;;;;;;5042829;28;20516;-84
2022/08/13 05:47:09;;;;;;;4.70;2.20;;;17.40;99.90;;;;;;5040056;28;20069;-84
2022/08/13 05:49:35;;;;;;;5.18;2.13;;;17.50;99.90;;;;;;5036372;28;20421;-83
2022/08/13 05:52:06;;;;;;;3.45;1.75;;;17.60;99.90;;;;;;5034964;28;20049;-83
2022/08/13 05:54:32;;;;;;;5.75;2.03;;;17.70;99.90;;;;;;5043872;28;20086;-83
2022/08/13 05:57:04;;;;;;;7.07;2.03;;;17.80;99.90;;;;;;5051630;28;20412;-83
2022/08/13 06:05:01;;;;;;;5.15;1.70;;;18.20;99.90;;;;;;5039240;28;20276;-83
2022/08/13 06:07:27;;;;;;;3.47;2.25;;;18.30;99.90;;;;;;5041146;28;20104;-83
2022/08/13 06:09:53;;;;;;;3.70;1.70;;;18.40;99.90;;;;;;5051452;28;20096;-83
2022/08/13 06:12:29;;;;;;;2.33;1.90;;;18.50;99.90;;;;;;5043655;28;20041;-83
2022/08/13 06:14:58;;;;;;;8.30;2.53;;;18.60;99.90;;;;;;5034793;28;20354;-83
2022/08/13 06:17:24;;;;;;;5.88;2.28;;;18.70;99.90;;;;;;5035669;28;20022;-83
2022/08/13 06:20:03;;;;;;;11.00;1.80;;;18.80;99.90;;;;;;5039160;28;20040;-83
2022/08/13 06:22:32;;;;;;;6.32;2.72;;;18.90;99.90;;;;;;5049331;28;20496;-83
2022/08/13 06:25:16;;;;;;;6.47;2.10;;;19.00;99.90;;;;;;5044022;28;20025;-83
2022/08/13 06:27:43;;;;;;;4.80;2.30;;;19.20;99.90;;;;;;5051696;28;20056;-82
2022/08/13 06:30:18;;;;;;;5.45;2.33;;;19.30;99.90;;;;;;5035488;28;20421;-83
2022/08/13 06:32:44;;;;;;;3.05;2.20;;;19.30;99.90;;;;;;5043079;28;20017;-83
2022/08/13 06:35:10;;;;;;;6.88;2.97;;;19.50;99.90;;;;;;5042534;28;20041;-83
2022/08/13 06:37:41;;;;;;;10.18;2.88;;;19.50;99.90;;;;;;5033057;28;20112;-82
2022/08/13 06:40:10;;;;;;;6.28;2.65;;;19.60;99.90;;;;;;5040590;28;20132;-83
2022/08/13 06:42:36;;;;;;;5.82;2.67;;;19.70;99.90;;;;;;5036943;28;20021;-83
2022/08/13 06:45:04;;;;;;;7.20;2.45;;;19.80;99.90;;;;;;5033140;28;20112;-83
2022/08/13 06:47:31;;;;;;;3.30;2.13;;;19.70;99.90;;;;;;5033709;28;20021;-83
2022/08/13 06:50:10;;;;;;;3.72;2.05;;;19.70;99.90;;;;;;5041735;28;20028;-83
2022/08/13 06:52:37;;;;;;;4.40;2.83;;;19.70;99.90;;;;;;5045097;28;20384;-83
2022/08/13 06:55:44;;;;;;;4.63;2.08;;;19.80;99.90;;;;;;5046858;28;20017;-83
2022/08/13 06:58:10;;;;;;;;;;;19.90;99.90;;;;;;5044483;28;20127;-83
2022/08/13 07:00:52;;;;;;;;;;;20.00;99.90;;;;;;5039473;28;20357;-83
2022/08/13 07:03:18;;;;;;;8.30;2.40;;;20.10;99.90;;;;;;5046093;28;19955;-83
2022/08/13 07:05:44;;;;;;;11.30;2.75;;;20.10;99.90;;;;;;5036806;28;20037;-83
2022/08/13 07:08:12;;;;;;;5.22;2.38;;;20.20;99.90;;;;;;5042713;28;20385;-83
2022/08/13 07:13:45;;;;;;;4.75;2.30;;;20.30;99.90;;;;;;5034956;28;20052;-83
2022/08/13 07:16:16;;;;;;;9.73;3.25;;;20.40;99.90;;;;;;5039299;28;20032;-83
2022/08/13 07:19:29;;;;;;;4.55;2.60;;;20.40;99.90;;;;;;5037888;28;20029;-83
2022/08/13 07:21:55;;;;;;;3.55;2.45;;;20.40;99.90;;;;;;5050576;28;20025;-83
2022/08/13 07:24:20;;;;;;;7.18;2.97;;;20.60;99.90;;;;;;5033011;28;20525;-83
2022/08/13 07:26:47;;;;;;;12.27;2.13;;;20.60;99.90;;;;;;5034251;28;20025;-83
2022/08/13 07:29:19;;;;;;;3.03;2.67;;;20.60;99.90;;;;;;5035472;28;20120;-83
2022/08/13 07:31:45;;;;;;;3.90;2.55;;;20.70;99.90;;;;;;5043853;28;20056;-83
2022/08/13 07:34:10;;;;;;;8.40;2.85;;;20.70;99.90;;;;;;5047762;28;20053;-83
2022/08/13 07:36:38;;;;;;;5.28;2.83;;;20.70;99.90;;;;;;5037919;28;20038;-83
2022/08/13 07:39:10;;;;;;;6.40;3.00;;;20.80;99.90;;;;;;5051790;28;20542;-83
2022/08/13 07:41:42;;;;;;;4.15;2.95;;;20.90;99.90;;;;;;5049275;28;20451;-84
2022/08/13 07:44:17;;;;;;;3.00;2.70;;;21.00;99.90;;;;;;5049041;28;20029;-83
2022/08/13 07:46:44;;;;;;;3.13;2.50;;;21.00;99.90;;;;;;5036630;28;20033;-83
2022/08/13 07:49:12;;;;;;;5.22;2.75;;;21.00;99.90;;;;;;5034479;28;20021;-83
2022/08/13 07:51:38;;;;;;;3.60;2.45;;;21.10;99.90;;;;;;5050822;28;20074;-83
2022/08/13 07:54:06;;;;;;;5.88;2.78;;;21.10;99.90;;;;;;5040388;28;20022;-83
2022/08/13 07:56:32;;;;;;;6.90;3.03;;;21.10;99.90;;;;;;5042159;28;20053;-83
2022/08/13 07:59:06;;;;;;;3.03;2.70;;;21.30;99.90;;;;;;5039766;28;20025;-83
2022/08/13 08:01:36;;;;;;;5.95;2.80;;;21.30;99.90;;;;;;5039624;28;20078;-83
2022/08/13 08:04:03;;;;;;;2.92;2.47;;;21.30;99.90;;;;;;5045884;28;20543;-83
2022/08/13 08:06:29;;;;;;;4.45;3.10;;;21.40;99.90;;;;;;5044844;28;20111;-83
2022/08/13 08:08:58;;;;;;;6.28;3.28;;;21.50;99.90;;;;;;5041486;28;20380;-83
2022/08/13 08:14:12;;;;;;;3.50;2.40;;;21.70;99.90;;;;;;5040485;28;20071;-83
2022/08/13 08:16:42;;;;;;;5.05;2.60;;;21.80;99.90;;;;;;5050503;28;20029;-83
2022/08/13 08:19:07;;;;;;;4.68;2.72;;;21.80;99.90;;;;;;5046176;28;20025;-84
2022/08/13 08:21:40;;;;;;;3.20;2.90;;;21.90;99.90;;;;;;5032334;28;20036;-83
2022/08/13 08:24:06;;;;;;;3.55;2.58;;;21.90;99.90;;;;;;5042614;28;20103;-83
2022/08/13 08:26:34;;;;;;;18.10;2.92;;;22.00;99.90;;;;;;5034753;28;20033;-83
2022/08/13 08:29:08;;;;;;;6.32;3.50;;;22.10;99.90;;;;;;5040624;28;20029;-83
2022/08/13 08:31:39;;;;;;;8.10;3.00;;;22.30;99.90;;;;;;5032845;28;20028;-84
2022/08/13 08:34:07;;;;;;;4.68;3.33;;;22.40;99.90;;;;;;5045436;28;20388;-84
2022/08/13 08:36:37;;;;;;;8.20;2.90;;;22.50;99.90;;;;;;5035364;28;20026;-84
2022/08/13 08:44:36;;;;;;;9.88;3.65;;;22.80;99.90;;;;;;5039314;28;20388;-84
2022/08/13 08:47:03;;;;;;;9.48;3.17;;;22.90;99.90;;;;;;5032215;28;20112;-83
2022/08/13 08:49:30;;;;;;;5.32;3.15;;;23.10;99.90;;;;;;5034920;28;20021;-84
2022/08/13 08:51:58;;;;;;;4.35;3.22;;;23.20;99.90;;;;;;5031446;28;20104;-84
2022/08/13 08:54:25;;;;;;;6.47;3.42;;;23.20;99.90;;;;;;5031824;28;20393;-84
2022/08/13 08:56:54;;;;;;;4.40;3.13;;;23.30;99.90;;;;;;5041729;28;20032;-83
2022/08/13 08:59:25;;;;;;;6.75;3.53;;;23.40;99.90;;;;;;5033063;28;20040;-83
2022/08/13 09:01:55;;;;;;;6.25;3.88;;;23.50;99.90;;;;;;5034807;28;20033;-83
2022/08/13 09:04:25;;;;;;;3.65;3.30;;;23.60;99.90;;;;;;5032405;28;20030;-83
2022/08/13 09:06:52;;;;;;;8.65;3.47;;;23.70;99.90;;;;;;5034589;28;20036;-83
2022/08/13 09:09:19;;;;;;;15.05;3.92;;;23.80;99.90;;;;;;5037694;28;20056;-83
2022/08/13 09:11:55;;;;;;;4.07;3.00;;;23.80;99.90;;;;;;5043142;28;20516;-84
2022/08/13 09:14:25;;;;;;;5.78;4.20;;;23.80;99.90;;;;;;5050495;28;20029;-84
2022/08/13 09:16:55;;;;;;;4.95;3.47;;;23.90;99.90;;;;;;5042721;28;20075;-84
2022/08/13 09:19:23;;;;;;;5.07;3.53;;;24.00;99.90;;;;;;5032135;28;20036;-84
2022/08/13 09:22:04;;;;;;;6.15;3.42;;;24.00;99.90;;;;;;5047312;28;20108;-84
2022/08/13 09:24:29;;;;;;;3.40;3.10;;;24.10;99.90;;;;;;5052034;28;20023;-84
2022/08/13 09:26:59;;;;;;;4.03;3.47;;;24.10;99.90;;;;;;5050962;28;20509;-84
2022/08/13 09:29:25;;;;;;;6.20;4.18;;;24.20;99.90;;;;;;5050878;28;20120;-84
2022/08/13 09:31:55;;;;;;;6.40;3.97;;;24.30;99.90;;;;;;5034564;28;20116;-83
2022/08/13 09:34:21;;;;;;;4.13;3.65;;;24.30;99.90;;;;;;5041370;28;20025;-84
2022/08/13 09:36:50;;;;;;;12.23;4.10;;;24.40;99.90;;;;;;5036155;28;20033;-84
2022/08/13 09:39:33;;;;;;;4.97;3.80;;;24.50;99.90;;;;;;5038027;28;20026;-84
2022/08/13 09:42:00;;;;;;;7.15;3.85;;;24.50;99.90;;;;;;5032454;28;20085;-84
2022/08/13 09:44:26;;;;;;;15.13;3.67;;;24.40;99.90;;;;;;5031109;28;20533;-84
2022/08/13 09:46:52;;;;;;;7.22;4.50;;;24.50;99.90;;;;;;5032324;28;20026;-85
2022/08/13 09:49:20;;;;;;;7.78;3.92;;;24.50;99.90;;;;;;5040804;28;20025;-85
2022/08/13 09:51:46;;;;;;;5.78;3.83;;;24.50;99.90;;;;;;5034724;28;20067;-85
2022/08/13 09:54:11;;;;;;;8.30;3.78;;;24.50;99.90;;;;;;5036173;28;20412;-84
2022/08/13 09:56:38;;;;;;;9.55;4.13;;;24.50;99.90;;;;;;5036622;28;20032;-85
2022/08/13 09:59:24;;;;;;;8.80;3.72;;;24.70;99.90;;;;;;5033441;28;20454;-85
2022/08/13 10:01:51;;;;;;;8.88;4.32;;;24.80;99.90;;;;;;5037563;28;20036;-85
2022/08/13 10:04:18;;;;;;;7.65;3.72;;;24.90;99.90;;;;;;5040286;28;20028;-85
2022/08/13 10:06:47;;;;;;;9.90;5.05;;;24.90;99.90;;;;;;5035268;28;20022;-85
2022/08/13 10:09:14;;;;;;;11.18;3.90;;;24.90;99.90;;;;;;5042328;28;20033;-85
2022/08/13 10:11:40;;;;;;;5.45;3.97;;;25.00;99.10;;;;;;5032126;28;20564;-85
2022/08/13 10:14:06;;;;;;;8.38;3.50;;;25.10;98.20;;;;;;5037892;28;20752;-85
2022/08/13 10:16:52;;;;;;;9.93;3.78;;;25.10;98.20;;;;;;5040417;28;20076;-85
2022/08/13 10:19:17;;;;;;;;;;;25.20;97.30;;;;;;5040693;28;20045;-85
2022/08/13 10:21:56;;;;;;;4.20;3.55;;;25.20;96.70;;;;;;5039389;28;20340;-85
2022/08/13 10:24:21;;;;;;;5.80;4.13;;;25.30;97.00;;;;;;5030419;28;20397;-84
2022/08/13 10:26:47;;;;;;;7.32;4.30;;;25.30;96.90;;;;;;5031633;28;20029;-85
2022/08/13 10:29:13;;;;;;;7.68;4.10;;;25.40;96.10;;;;;;5034923;28;20040;-86
2022/08/13 10:31:38;;;;;;;10.93;4.07;;;25.50;95.40;;;;;;5035060;28;20373;-84
2022/08/13 10:34:05;;;;;;;9.75;4.15;;;25.50;95.00;;;;;;5034854;28;20025;-85
2022/08/13 10:36:33;;;;;;;8.50;4.07;;;25.60;94.50;;;;;;5038069;28;20026;-84
2022/08/13 10:38:59;;;;;;;4.35;3.95;;;25.70;93.50;;;;;;5047848;28;20041;-85
2022/08/13 10:41:24;;;;;;;4.82;3.65;;;25.70;92.30;;;;;;5054550;28;20029;-85
2022/08/13 10:43:51;;;;;;;6.68;3.92;;;25.70;91.80;;;;;;5049226;28;20094;-85
2022/08/13 10:46:17;;;;;;;4.40;4.00;;;25.70;91.20;;;;;;5050235;28;20025;-85
2022/08/13 10:48:44;;;;;;;9.77;4.63;;;25.60;89.80;;;;;;5036050;28;20389;-84
2022/08/13 10:51:09;;;;;;;5.10;4.05;;;25.50;89.80;;;;;;5037716;28;20021;-84
2022/08/13 10:57:03;;;;;;;6.97;4.25;;;25.50;91.20;;;;;;5043226;28;20179;-85
2022/08/13 10:59:29;;;;;;;12.10;4.82;;;25.60;90.60;;;;;;5035003;28;20423;-84
2022/08/13 11:01:55;;;;;;;11.80;5.05;;;25.70;89.50;;;;;;5036113;28;20024;-84
2022/08/13 11:04:52;;;;;;;5.85;5.03;;;25.80;88.00;;;;;;5046018;28;20033;-84
2022/08/13 11:07:20;;;;;;;5.28;4.43;;;25.80;88.70;;;;;;5035301;28;20025;-84
2022/08/13 11:10:04;;;;;;;6.65;4.57;;;25.80;88.80;;;;;;5036682;28;20029;-84
2022/08/13 11:12:30;;;;;;;6.60;4.63;;;25.90;87.10;;;;;;5034165;28;20053;-83
2022/08/13 11:14:55;;;;;;;8.13;4.85;;;25.90;86.90;;;;;;5041351;28;20044;-85
2022/08/13 11:18:01;;;;;;;8.77;4.28;;;25.90;87.30;;;;;;5039687;28;20104;-84
2022/08/13 11:20:29;;;;;;;5.78;4.88;;;25.90;85.70;;;;;;5038121;28;20108;-84
2022/08/13 11:22:59;;;;;;;9.75;4.63;;;25.90;86.60;;;;;;5034428;28;20037;-84
2022/08/13 11:25:25;;;;;;;11.73;4.70;;;25.90;87.20;;;;;;5036519;28;20108;-85
2022/08/13 11:27:54;;;;;;;6.07;5.25;;;25.80;88.70;;;;;;5033479;28;20426;-84
2022/08/13 11:30:21;;;;;;;8.45;5.40;;;25.80;89.10;;;;;;5033686;28;20029;-85
2022/08/13 11:32:46;;;;;;;8.27;4.75;;;25.80;87.90;;;;;;5044106;28;20110;-85
2022/08/13 11:35:14;;;;;;;6.18;4.40;;;25.70;89.20;;;;;;5043310;28;20484;-84
2022/08/13 11:37:39;;;;;;;10.40;5.55;;;25.70;90.90;;;;;;5045937;28;20025;-85
2022/08/13 11:40:08;;;;;;;16.55;5.15;;;25.60;91.70;;;;;;5052177;28;20108;-84
2022/08/13 11:42:33;;;;;;;14.05;5.10;;;25.60;92.40;;;;;;5049200;28;20044;-84
2022/08/13 11:45:16;;;;;;;9.90;5.38;;;25.50;93.30;;;;;;5046046;28;20017;-84
2022/08/13 11:47:42;;;;;;;11.45;5.07;;;25.40;94.50;;;;;;5045489;28;20021;-84
2022/08/13 11:50:08;;;;;;;14.20;5.65;;;25.40;96.10;;;;;;5043266;28;20116;-84
2022/08/13 11:52:38;;;;;;;12.52;5.38;;;25.30;96.10;;;;;;5046021;28;20082;-84
2022/08/13 11:55:04;;;;;;;7.57;5.22;;;25.30;97.10;;;;;;5048035;28;20020;-84
2022/08/13 11:57:39;;;;;;;5.95;5.45;;;25.30;97.70;;;;;;5048499;28;20021;-84
2022/08/13 12:00:06;;;;;;;13.50;5.03;;;25.20;97.40;;;;;;5041626;28;20372;-85
2022/08/13 12:02:32;;;;;;;6.93;4.55;;;25.20;98.80;;;;;;5043417;28;20031;-86
2022/08/13 12:05:04;;;;;;;9.98;5.20;;;25.20;99.60;;;;;;5037847;28;20021;-85
2022/08/13 12:07:30;;;;;;;9.50;5.70;;;25.30;99.60;;;;;;5046352;28;20122;-85
2022/08/13 12:09:56;;;;;;;10.02;6.15;;;25.20;99.80;;;;;;5035132;28;20049;-85
2022/08/13 12:12:22;;;;;;;7.47;5.45;;;25.30;99.90;;;;;;5034710;28;20126;-85
2022/08/13 12:14:49;;;;;;;10.40;5.47;;;25.30;99.90;;;;;;5045504;28;20022;-85
2022/08/13 12:17:14;;;;;;;9.57;4.85;;;25.30;99.90;;;;;;5035712;28;20022;-84
2022/08/13 12:19:40;;;;;;;12.30;5.80;;;25.20;99.90;;;;;;5041746;28;20033;-84
2022/08/13 12:22:24;;;;;;;9.30;5.70;;;25.20;99.90;;;;;;5041476;28;20033;-84
2022/08/13 12:24:52;;;;;;;6.07;4.95;;;25.30;99.90;;;;;;5035063;28;20037;-86
2022/08/13 12:27:24;;;;;;;12.43;5.90;;;25.30;99.90;;;;;;5052491;28;20021;-85
2022/08/13 12:29:50;;;;;;;15.05;5.97;;;25.30;99.90;;;;;;5047040;28;20116;-84
2022/08/13 12:32:16;;;;;;;15.50;6.25;;;25.40;99.90;;;;;;5037510;28;20592;-85
2022/08/13 12:34:41;;;;;;;8.98;5.70;;;25.40;99.90;;;;;;5039921;28;20048;-84
2022/08/13 12:37:07;;;;;;;5.68;5.07;;;25.40;99.90;;;;;;5039234;28;20037;-84
2022/08/13 12:39:41;;;;;;;7.88;5.78;;;25.40;99.90;;;;;;5039062;28;20507;-84
2022/08/13 12:42:07;;;;;;;7.30;6.22;;;25.40;99.90;;;;;;5037674;28;20373;-85
2022/08/13 12:44:39;;;;;;;9.50;6.30;;;25.40;99.90;;;;;;5033340;28;20041;-85
2022/08/13 12:47:04;;;;;;;7.60;5.57;;;25.30;99.90;;;;;;5036317;28;20119;-85
2022/08/13 12:49:31;;;;;;;8.63;6.35;;;25.30;99.90;;;;;;5043207;28;20552;-85
2022/08/13 12:51:59;;;;;;;10.02;5.88;;;25.30;99.90;;;;;;5035234;28;20031;-85
2022/08/13 12:54:26;;;;;;;7.50;5.72;;;25.30;99.90;;;;;;5034874;28;20029;-84
2022/08/13 12:56:54;;;;;;;7.00;6.30;;;25.30;99.90;;;;;;5045277;28;20025;-85
2022/08/13 12:59:20;;;;;;;9.20;6.30;;;25.30;99.90;;;;;;5034677;28;20450;-85
2022/08/13 13:01:51;;;;;;;7.43;6.15;;;25.30;99.90;;;;;;5039979;28;20096;-85
2022/08/13 13:04:32;;;;;;;7.28;6.45;;;25.30;99.90;;;;;;5032398;28;20033;-85
2022/08/13 13:06:58;;;;;;;7.28;5.72;;;25.30;99.90;;;;;;5032967;28;20819;-85
2022/08/13 13:09:25;;;;;;;7.70;5.95;;;25.30;99.90;;;;;;5032810;28;20520;-85
2022/08/13 13:11:52;;;;;;;8.18;5.60;;;25.30;99.90;;;;;;5050882;28;20039;-84
2022/08/13 13:14:18;;;;;;;12.45;6.25;;;25.30;99.90;;;;;;5045622;28;20067;-85
2022/08/13 13:16:44;;;;;;;10.55;5.65;;;25.30;99.90;;;;;;5039762;28;20021;-86
2022/08/13 13:19:10;;;;;;;7.95;5.70;;;25.30;99.90;;;;;;5033216;28;20021;-85
2022/08/13 13:21:41;;;;;;;6.70;5.47;;;25.40;99.90;;;;;;5034092;28;20037;-85
2022/08/13 13:24:09;;;;;;;9.70;5.63;;;25.40;99.90;;;;;;5032482;28;20029;-85
2022/08/13 13:26:34;;;;;;;8.82;5.68;;;25.40;99.90;;;;;;5044753;28;20079;-85
2022/08/13 13:29:03;;;;;;;8.70;6.10;;;25.40;99.90;;;;;;5036804;28;20033;-84
2022/08/13 13:31:28;;;;;;;9.48;6.13;;;25.40;99.50;;;;;;5037466;28;20104;-86
2022/08/13 13:33:54;;;;;;;6.43;5.43;;;25.30;99.70;;;;;;5038296;28;20088;-85
2022/08/13 13:36:19;;;;;;;13.60;6.07;;;25.30;99.90;;;;;;5040579;28;20030;-85
2022/08/13 13:38:45;;;;;;;11.77;6.13;;;25.30;99.90;;;;;;5033568;28;20109;-85